Time;durP1;ratioP1;P1;durP2;ratioP2;P2;SDS_P1;SDS_P2;PMS_P1;PMS_P2;Temp;Humidity;BMP_temperature;BMP_pressure;BME280_temperature;BME280_humidity;BME280_pressure;Samples;Min_cycle;Max_cycle;Signal;HPM_P1;HPM_P2
2023/05/05 00:02:02;;;;;;;;;;;20.60;55.80;;;;;;5087129;27;42862;-84
2023/05/05 00:04:27;;;;;;;;;;;20.50;55.60;;;;;;5086571;28;42966;-79
2023/05/05 00:06:53;;;;;;;;;;;20.50;55.60;;;;;;5086131;28;43461;-81
2023/05/05 00:09:18;;;;;;;;;;;20.50;55.50;;;;;;5086930;27;42861;-82
2023/05/05 00:11:44;;;;;;;;;;;20.60;55.70;;;;;;5086657;28;44455;-79
2023/05/05 00:14:10;;;;;;;;;;;20.50;55.60;;;;;;5086049;28;42959;-80
2023/05/05 00:16:36;;;;;;;;;;;20.60;55.70;;;;;;5085887;27;43557;-81
2023/05/05 00:19:01;;;;;;;;;;;20.50;55.70;;;;;;5086670;27;43271;-78
2023/05/05 00:21:27;;;;;;;;;;;20.50;55.50;;;;;;5086460;28;43899;-84
2023/05/05 00:23:52;;;;;;;;;;;20.60;55.70;;;;;;5087431;28;42882;-79
2023/05/05 00:26:18;;;;;;;;;;;20.50;55.50;;;;;;5084175;27;43601;-79
2023/05/05 00:28:44;;;;;;;;;;;20.60;55.60;;;;;;5085770;27;42929;-82
2023/05/05 00:31:09;;;;;;;;;;;;;;;;;;5086058;28;42983;-79
2023/05/05 00:33:35;;;;;;;;;;;;;;;;;;5086589;28;43094;-81
2023/05/05 00:36:01;;;;;;;;;;;20.60;55.50;;;;;;5086470;28;43601;-79
2023/05/05 00:38:27;;;;;;;;;;;20.60;55.40;;;;;;5100019;27;42894;-81
2023/05/05 00:40:53;;;;;;;;;;;20.70;55.20;;;;;;5106762;27;43441;-84
2023/05/05 00:43:18;;;;;;;;;;;20.60;55.50;;;;;;5086796;27;42906;-81
2023/05/05 00:45:46;;;;;;;;;;;20.60;55.00;;;;;;5086341;27;43635;-80
2023/05/05 00:48:12;;;;;;;;;;;20.60;55.40;;;;;;5086960;28;42910;-81
2023/05/05 00:50:38;;;;;;;;;;;20.60;55.30;;;;;;5085608;27;44004;-81
2023/05/05 00:53:04;;;;;;;;;;;20.60;55.40;;;;;;5086283;27;43258;-81
2023/05/05 00:55:31;;;;;;;;;;;20.70;55.40;;;;;;5085944;27;42903;-80
2023/05/05 00:57:57;;;;;;;;;;;;;;;;;;5085684;27;42906;-79
2023/05/05 01:00:22;;;;;;;;;;;20.60;55.50;;;;;;5086187;27;42904;-81
2023/05/05 01:02:48;;;;;;;;;;;20.60;55.40;;;;;;5085163;27;43023;-80
2023/05/05 01:05:14;;;;;;;;;;;20.70;55.40;;;;;;5086638;27;43501;-79
2023/05/05 01:07:54;;;;;;;;;;;20.70;55.40;;;;;;5086548;27;42895;-82
2023/05/05 01:10:21;;;;;;;;;;;;;;;;;;5087577;27;42815;-84
2023/05/05 01:13:05;;;;;;;;;;;20.70;55.50;;;;;;5086420;27;42944;-80
2023/05/05 01:15:31;;;;;;;;;;;20.50;55.30;;;;;;5085761;27;43023;-80
2023/05/05 01:18:20;;;;;;;;;;;20.50;55.40;;;;;;5085833;28;43082;-82
2023/05/05 01:20:45;;;;;;;;;;;20.60;55.30;;;;;;5077937;28;42963;-80
2023/05/05 01:23:11;;;;;;;;;;;;;;;;;;5087959;28;42889;-80
2023/05/05 01:25:49;;;;;;;;;;;20.70;55.20;;;;;;5086626;28;45480;-85
2023/05/05 01:28:23;;;;;;;;;;;20.60;55.20;;;;;;5087241;28;43070;-79
2023/05/05 01:31:07;;;;;;;;;;;20.60;55.10;;;;;;5085638;28;44139;-83
2023/05/05 01:33:35;;;;;;;;;;;20.60;55.30;;;;;;5086376;28;43036;-79
2023/05/05 01:36:05;;;;;;;;;;;20.50;55.20;;;;;;5085501;27;42845;-79
2023/05/05 01:38:31;;;;;;;;;;;;;;;;;;5085130;28;43070;-83
2023/05/05 01:40:59;;;;;;;;;;;20.50;55.00;;;;;;5083719;28;43099;-78
2023/05/05 01:43:28;;;;;;;;;;;20.60;55.10;;;;;;5085741;27;42981;-79
2023/05/05 01:45:54;;;;;;;;;;;20.30;54.90;;;;;;5086282;27;42827;-78
2023/05/05 01:48:21;;;;;;;;;;;20.50;55.10;;;;;;5085806;27;43050;-81
2023/05/05 01:50:47;;;;;;;;;;;20.50;55.20;;;;;;5085607;27;42945;-81
2023/05/05 01:53:13;;;;;;;;;;;20.40;55.00;;;;;;5085591;27;42918;-81
2023/05/05 01:55:39;;;;;;;;;;;20.50;54.90;;;;;;5085226;28;43020;-81
2023/05/05 01:58:06;;;;;;;;;;;20.50;55.00;;;;;;5084752;27;42913;-79
2023/05/05 02:00:32;;;;;;;;;;;20.50;55.20;;;;;;5081803;28;43070;-84
2023/05/05 02:02:58;;;;;;;;;;;20.40;55.10;;;;;;5066904;28;42960;-84
2023/05/05 02:05:25;;;;;;;;;;;20.50;54.90;;;;;;5085354;27;43542;-80
2023/05/05 02:07:53;;;;;;;;;;;20.60;55.00;;;;;;5085339;27;42866;-79
2023/05/05 02:10:19;;;;;;;;;;;20.70;54.90;;;;;;5084879;27;43871;-79
2023/05/05 02:12:45;;;;;;;;;;;;;;;;;;5085118;28;42956;-79
2023/05/05 02:15:11;;;;;;;;;;;20.60;54.80;;;;;;5085005;28;43742;-81
2023/05/05 02:17:39;;;;;;;;;;;20.70;54.80;;;;;;5085237;27;43030;-82
2023/05/05 02:20:05;;;;;;;;;;;20.60;54.60;;;;;;5085298;28;42861;-79
2023/05/05 02:22:31;;;;;;;;;;;20.50;54.70;;;;;;5084519;28;42854;-82
2023/05/05 02:24:57;;;;;;;;;;;20.50;54.60;;;;;;5082998;28;44575;-80
2023/05/05 02:27:23;;;;;;;;;;;20.50;54.70;;;;;;5085228;27;43003;-79
2023/05/05 02:29:54;;;;;;;;;;;20.40;54.80;;;;;;5091381;28;43445;-86
2023/05/05 02:32:22;;;;;;;;;;;20.50;54.80;;;;;;5092136;27;42956;-79
2023/05/05 02:34:49;;;;;;;;;;;20.60;54.80;;;;;;5091893;28;43122;-81
2023/05/05 02:37:18;;;;;;;;;;;20.60;54.70;;;;;;5091452;27;42884;-85
2023/05/05 02:39:57;;;;;;;;;;;20.60;54.90;;;;;;5091538;27;42802;-79
2023/05/05 02:42:25;;;;;;;;;;;20.50;54.70;;;;;;5092213;27;42945;-79
2023/05/05 02:44:52;;;;;;;;;;;20.50;55.00;;;;;;5091455;27;43611;-79
2023/05/05 02:47:19;;;;;;;;;;;20.60;54.70;;;;;;5091149;27;43019;-82
2023/05/05 02:49:44;;;;;;;;;;;20.60;54.60;;;;;;5080923;27;42908;-84
2023/05/05 02:52:10;;;;;;;;;;;20.40;54.60;;;;;;5071399;28;42878;-79
2023/05/05 02:54:36;;;;;;;;;;;20.50;54.60;;;;;;5071253;28;44670;-78
2023/05/05 02:57:03;;;;;;;;;;;20.60;54.80;;;;;;5070020;28;60938;-82
2023/05/05 02:59:38;;;;;;;;;;;20.50;54.70;;;;;;5070956;28;44019;-80
2023/05/05 03:02:03;;;;;;;;;;;20.50;54.80;;;;;;5071072;28;42796;-80
2023/05/05 03:04:32;;;;;;;;;;;20.50;54.80;;;;;;5071024;28;43016;-82
2023/05/05 03:07:02;;;;;;;;;;;20.60;54.80;;;;;;5071234;28;42944;-79
2023/05/05 03:09:35;;;;;;;;;;;20.60;54.50;;;;;;5071467;28;43434;-82
2023/05/05 03:12:05;;;;;;;;;;;20.40;54.40;;;;;;5071354;28;43049;-84
2023/05/05 03:14:35;;;;;;;;;;;20.60;54.40;;;;;;5069150;28;43022;-80
2023/05/05 03:17:01;;;;;;;;;;;20.50;54.40;;;;;;5086547;28;43079;-83
2023/05/05 03:19:27;;;;;;;;;;;20.50;54.50;;;;;;5091511;27;42945;-79
2023/05/05 03:21:53;;;;;;;;;;;20.60;54.60;;;;;;5090065;28;42795;-79
2023/05/05 03:24:19;;;;;;;;;;;20.50;54.60;;;;;;5091360;27;42983;-82
2023/05/05 03:26:45;;;;;;;;;;;20.50;54.00;;;;;;5091251;27;43075;-78
2023/05/05 03:29:12;;;;;;;;;;;20.60;54.30;;;;;;5091341;27;43976;-81
2023/05/05 03:31:37;;;;;;;;;;;20.60;54.30;;;;;;5091415;28;42876;-82
2023/05/05 03:34:03;;;;;;;;;;;20.50;54.10;;;;;;5091236;28;43299;-79
2023/05/05 03:36:28;;;;;;;;;;;20.60;54.30;;;;;;5089858;28;42937;-80
2023/05/05 03:38:54;;;;;;;;;;;20.50;54.10;;;;;;5088522;27;43688;-81
2023/05/05 03:41:23;;;;;;;;;;;20.50;54.10;;;;;;5086659;27;43445;-81
2023/05/05 03:43:48;;;;;;;;;;;;;;;;;;5087594;28;43810;-82
2023/05/05 03:46:15;;;;;;;;;;;20.40;54.10;;;;;;5086055;28;42939;-78
2023/05/05 03:48:40;;;;;;;;;;;20.50;54.10;;;;;;5087902;27;42837;-85
2023/05/05 03:51:06;;;;;;;;;;;20.40;54.10;;;;;;5087729;27;43049;-83
2023/05/05 03:53:31;;;;;;;;;;;20.40;54.30;;;;;;5087570;27;43668;-81
2023/05/05 03:55:57;;;;;;;;;;;20.40;54.40;;;;;;5087383;28;42979;-79
2023/05/05 03:58:22;;;;;;;;;;;20.20;54.30;;;;;;5087462;28;42787;-80
2023/05/05 04:00:48;;;;;;;;;;;20.40;54.20;;;;;;5085847;28;42913;-80
2023/05/05 04:03:13;;;;;;;;;;;20.50;54.20;;;;;;5087449;28;43087;-78
2023/05/05 04:05:39;;;;;;;;;;;20.40;54.40;;;;;;5087576;28;42862;-81
2023/05/05 04:08:05;;;;;;;;;;;20.50;54.50;;;;;;5087025;27;44382;-79
2023/05/05 04:10:31;;;;;;;;;;;20.50;54.50;;;;;;5085601;28;43053;-79
2023/05/05 04:12:56;;;;;;;;;;;20.70;54.50;;;;;;5086968;27;43526;-80
2023/05/05 04:15:22;;;;;;;;;;;;;;;;;;5085293;28;43001;-79
2023/05/05 04:17:47;;;;;;;;;;;20.40;54.20;;;;;;5081198;28;43864;-79
2023/05/05 04:20:13;;;;;;;;;;;20.60;54.20;;;;;;5067019;28;42902;-80
2023/05/05 04:22:38;;;;;;;;;;;20.50;53.90;;;;;;5066802;28;43429;-80
2023/05/05 04:25:04;;;;;;;;;;;20.50;54.10;;;;;;5067374;28;43136;-80
2023/05/05 04:27:30;;;;;;;;;;;20.50;54.00;;;;;;5081819;27;43096;-81
2023/05/05 04:29:55;;;;;;;;;;;20.40;54.10;;;;;;5077718;28;43036;-81
2023/05/05 04:32:21;;;;;;;;;;;20.40;54.10;;;;;;5074891;28;43980;-80
2023/05/05 04:34:46;;;;;;;;;;;20.60;54.00;;;;;;5073052;28;42923;-83
2023/05/05 04:37:13;;;;;;;;;;;;;;;;;;5079940;28;44734;-80
2023/05/05 04:39:39;;;;;;;;;;;;;;;;;;5087126;28;42743;-82
2023/05/05 04:42:05;;;;;;;;;;;20.50;53.90;;;;;;5084421;28;43572;-83
2023/05/05 04:44:31;;;;;;;;;;;;;;;;;;5078323;27;43415;-80
2023/05/05 04:46:57;;;;;;;;;;;;;;;;;;5075367;28;43025;-80
2023/05/05 04:49:23;;;;;;;;;;;;;;;;;;5080880;28;43044;-84
2023/05/05 04:51:48;;;;;;;;;;;;;;;;;;5073266;27;42953;-81
2023/05/05 04:54:14;;;;;;;;;;;;;;;;;;5083943;28;43191;-80
2023/05/05 04:56:40;;;;;;;;;;;20.50;54.20;;;;;;5071868;28;43524;-80
2023/05/05 04:59:06;;;;;;;;;;;20.60;54.00;;;;;;5064595;28;43103;-82
2023/05/05 05:01:31;;;;;;;;;;;20.60;54.20;;;;;;5064430;28;44723;-81
2023/05/05 05:03:57;;;;;;;;;;;20.50;53.90;;;;;;5065283;28;42937;-82
2023/05/05 05:06:23;;;;;;;;;;;20.60;54.10;;;;;;5077213;28;42936;-81
2023/05/05 05:08:48;;;;;;;;;;;;;;;;;;5085842;27;43073;-83
2023/05/05 05:11:14;;;;;;;;;;;20.50;54.20;;;;;;5079604;28;42846;-82
2023/05/05 05:13:40;;;;;;;;;;;20.50;54.50;;;;;;5071590;28;42887;-82
2023/05/05 05:16:06;;;;;;;;;;;20.30;54.50;;;;;;5083339;28;44408;-82
2023/05/05 05:18:31;;;;;;;;;;;20.50;54.70;;;;;;5085929;27;43001;-82
2023/05/05 05:20:57;;;;;;;;;;;20.30;54.90;;;;;;5085797;27;43034;-82
2023/05/05 05:23:22;;;;;;;;;;;20.30;55.00;;;;;;5085530;28;42924;-83
2023/05/05 05:25:48;;;;;;;;;;;20.30;54.90;;;;;;5076567;28;43360;-83
2023/05/05 05:28:13;;;;;;;;;;;20.40;55.00;;;;;;5076911;28;42985;-82
2023/05/05 05:30:39;;;;;;;;;;;20.40;55.10;;;;;;5084425;28;43705;-83
2023/05/05 05:33:04;;;;;;;;;;;20.20;55.60;;;;;;5084088;28;42953;-82
2023/05/05 05:35:30;;;;;;;;;;;20.20;55.60;;;;;;5084066;27;43681;-83
2023/05/05 05:37:55;;;;;;;;;;;20.40;55.50;;;;;;5084664;28;42976;-83
2023/05/05 05:40:21;;;;;;;;;;;20.20;55.20;;;;;;5085354;28;43361;-84
2023/05/05 05:42:46;;;;;;;;;;;20.30;55.30;;;;;;5084518;28;42961;-84
2023/05/05 05:45:12;;;;;;;;;;;20.30;55.10;;;;;;5085346;28;43594;-83
2023/05/05 05:47:37;;;;;;;;;;;20.40;55.00;;;;;;5085073;28;42798;-83
2023/05/05 05:50:03;;;;;;;;;;;20.50;55.10;;;;;;5085279;28;42945;-83
2023/05/05 05:52:29;;;;;;;;;;;20.30;55.00;;;;;;5085786;27;42948;-83
2023/05/05 05:54:55;;;;;;;;;;;20.40;55.00;;;;;;5085455;27;42976;-83
2023/05/05 05:57:22;;;;;;;;;;;20.40;55.10;;;;;;5084783;27;42921;-84
2023/05/05 05:59:48;;;;;;;;;;;20.40;55.20;;;;;;5085382;27;43415;-83
2023/05/05 06:02:13;;;;;;;;;;;20.50;55.10;;;;;;5083387;28;43151;-84
2023/05/05 06:04:39;;;;;;;;;;;20.40;55.00;;;;;;5085112;28;42989;-82
2023/05/05 06:07:05;;;;;;;;;;;;;;;;;;5085681;28;42984;-83
2023/05/05 06:09:30;;;;;;;;;;;20.40;55.20;;;;;;5086009;28;42829;-82
2023/05/05 06:11:56;;;;;;;;;;;20.50;55.30;;;;;;5085654;28;43162;-82
2023/05/05 06:14:21;;;;;;;;;;;20.30;55.40;;;;;;5085355;28;43129;-83
2023/05/05 06:16:47;;;;;;;;;;;20.40;55.50;;;;;;5085031;28;43003;-83
2023/05/05 06:19:12;;;;;;;;;;;20.30;55.40;;;;;;5084537;28;42976;-83
2023/05/05 06:21:38;;;;;;;;;;;20.40;55.30;;;;;;5084940;28;43043;-83
2023/05/05 06:24:03;;;;;;;;;;;20.40;55.30;;;;;;5084892;28;42967;-82
2023/05/05 06:26:30;;;;;;;;;;;20.40;55.40;;;;;;5085329;27;43565;-84
2023/05/05 06:28:55;;;;;;;;;;;20.40;55.60;;;;;;5084784;27;43720;-84
2023/05/05 06:31:21;;;;;;;;;;;20.40;55.80;;;;;;5085234;28;42839;-82
2023/05/05 06:33:46;;;;;;;;;;;20.30;55.70;;;;;;5083257;28;44013;-83
2023/05/05 06:36:12;;;;;;;;;;;20.40;55.80;;;;;;5084728;28;42877;-84
2023/05/05 06:38:37;;;;;;;;;;;20.40;55.60;;;;;;5085042;28;43090;-84
2023/05/05 06:41:03;;;;;;;;;;;20.40;55.80;;;;;;5084756;28;43003;-83
2023/05/05 06:43:29;;;;;;;;;;;20.30;56.20;;;;;;5084685;27;42921;-83
2023/05/05 06:45:54;;;;;;;;;;;20.30;56.60;;;;;;5084433;28;43152;-84
2023/05/05 06:48:20;;;;;;;;;;;;;;;;;;5085027;28;42902;-84
2023/05/05 06:50:46;;;;;;;;;;;20.30;56.80;;;;;;5085215;27;42908;-83
2023/05/05 06:53:11;;;;;;;;;;;20.50;57.00;;;;;;5084289;28;42898;-84
2023/05/05 06:55:37;;;;;;;;;;;20.40;56.80;;;;;;5084642;28;42936;-83
2023/05/05 06:58:03;;;;;;;;;;;20.50;56.80;;;;;;5084747;28;43040;-83
2023/05/05 07:00:28;;;;;;;;;;;20.50;56.60;;;;;;5084812;28;42968;-83
2023/05/05 07:02:54;;;;;;;;;;;20.40;56.50;;;;;;5084975;28;43475;-84
2023/05/05 07:05:19;;;;;;;;;;;20.30;56.50;;;;;;5083558;28;42764;-84
2023/05/05 07:07:52;;;;;;;;;;;20.40;56.50;;;;;;5084728;27;43396;-82
2023/05/05 07:10:17;;;;;;;;;;;20.40;56.20;;;;;;5085001;27;42905;-82
2023/05/05 07:12:43;;;;;;;;;;;20.50;56.20;;;;;;5084436;28;42956;-83
2023/05/05 07:15:09;;;;;;;;;;;20.40;56.00;;;;;;5086751;27;42844;-83
2023/05/05 07:17:34;;;;;;;;;;;20.50;56.10;;;;;;5088384;27;43228;-83
2023/05/05 07:20:00;;;;;;;;;;;20.50;56.00;;;;;;5088280;28;43031;-83
2023/05/05 07:22:26;;;;;;;;;;;20.50;56.00;;;;;;5088178;27;43340;-83
2023/05/05 07:24:52;;;;;;;;;;;20.60;56.00;;;;;;5088288;28;43107;-83
2023/05/05 07:27:21;;;;;;;;;;;20.40;55.80;;;;;;5087576;27;43392;-82
2023/05/05 07:29:46;;;;;;;;;;;20.50;55.80;;;;;;5087955;27;42754;-83
2023/05/05 07:32:12;;;;;;;;;;;;;;;;;;5087855;27;43740;-84
2023/05/05 07:34:39;;;;;;;;;;;20.50;55.80;;;;;;5087815;28;42833;-82
2023/05/05 07:37:05;;;;;;;;;;;20.50;55.80;;;;;;5088244;27;42989;-82
2023/05/05 07:39:31;;;;;;;;;;;20.40;55.70;;;;;;5087518;27;42900;-84
2023/05/05 07:41:56;;;;;;;;;;;20.40;55.70;;;;;;5087726;27;42983;-83
2023/05/05 07:44:22;;;;;;;;;;;20.40;55.80;;;;;;5087585;28;43119;-82
2023/05/05 07:46:47;;;;;;;;;;;20.60;55.90;;;;;;5087217;28;42924;-82
2023/05/05 07:49:13;;;;;;;;;;;20.40;55.80;;;;;;5087582;28;42838;-82
2023/05/05 07:51:38;;;;;;;;;;;20.50;55.80;;;;;;5087236;28;43508;-82
2023/05/05 07:54:04;;;;;;;;;;;20.50;55.80;;;;;;5087625;28;42949;-82
2023/05/05 07:56:29;;;;;;;;;;;20.50;55.80;;;;;;5087235;28;43594;-83
2023/05/05 07:58:55;;;;;;;;;;;;;;;;;;5087469;28;43043;-83
2023/05/05 08:01:21;;;;;;;;;;;20.50;56.00;;;;;;5087177;28;42973;-83
2023/05/05 08:03:46;;;;;;;;;;;20.50;56.70;;;;;;5086853;28;42939;-83
2023/05/05 08:06:14;;;;;;;;;;;20.30;57.00;;;;;;5086932;28;43543;-85
2023/05/05 08:08:40;;;;;;;;;;;20.50;57.00;;;;;;5085552;28;42970;-82
2023/05/05 08:11:06;;;;;;;;;;;20.40;57.10;;;;;;5086672;27;44526;-83
2023/05/05 08:13:32;;;;;;;;;;;20.40;57.10;;;;;;5087072;27;42886;-83
2023/05/05 08:15:58;;;;;;;;;;;20.50;56.90;;;;;;5085296;28;44589;-82
2023/05/05 08:18:23;;;;;;;;;;;20.60;56.40;;;;;;5087262;27;42880;-84
2023/05/05 08:20:49;;;;;;;;;;;20.50;56.90;;;;;;5086945;27;42974;-84
2023/05/05 08:23:15;;;;;;;;;;;20.60;56.80;;;;;;5087077;28;42913;-83
2023/05/05 08:25:40;;;;;;;;;;;20.50;56.90;;;;;;5086476;27;42936;-82
2023/05/05 08:28:06;;;;;;;;;;;20.50;56.60;;;;;;5087106;28;43031;-84
2023/05/05 08:30:31;;;;;;;;;;;20.60;56.50;;;;;;5086941;28;42849;-83
2023/05/05 08:32:58;;;;;;;;;;;20.60;56.60;;;;;;5086560;27;42898;-83
2023/05/05 08:35:23;;;;;;;;;;;20.50;56.40;;;;;;5086303;27;43281;-82
2023/05/05 08:37:49;;;;;;;;;;;20.70;56.30;;;;;;5086925;28;42996;-82
2023/05/05 08:40:15;;;;;;;;;;;20.50;56.20;;;;;;5087166;27;43741;-83
2023/05/05 08:42:41;;;;;;;;;;;20.70;56.90;;;;;;5087330;27;42933;-83
2023/05/05 08:45:09;;;;;;;;;;;20.60;56.90;;;;;;5086843;27;42919;-84
2023/05/05 08:47:36;;;;;;;;;;;20.50;56.90;;;;;;5085910;27;43956;-83
2023/05/05 08:50:02;;;;;;;;;;;20.50;56.80;;;;;;5086026;27;43647;-82
2023/05/05 08:52:36;;;;;;;;;;;20.60;56.90;;;;;;5087019;27;43207;-82
2023/05/05 08:55:25;;;;;;;;;;;20.60;56.90;;;;;;5085306;28;44568;-84
2023/05/05 08:57:57;;;;;;;;;;;20.50;56.60;;;;;;5086198;27;42922;-81
2023/05/05 09:00:22;;;;;;;;;;;;;;;;;;5086238;27;43430;-83
2023/05/05 09:02:48;;;;;;;;;;;20.60;57.10;;;;;;5087023;28;43121;-85
2023/05/05 09:05:14;;;;;;;;;;;20.70;56.90;;;;;;5086442;28;42927;-84
2023/05/05 09:07:42;;;;;;;;;;;20.70;56.90;;;;;;5085555;27;42952;-82
2023/05/05 09:10:09;;;;;;;;;;;20.60;57.20;;;;;;5085839;27;42995;-83
2023/05/05 09:12:34;;;;;;;;;;;20.70;57.20;;;;;;5085479;27;43033;-84
2023/05/05 09:15:02;;;;;;;;;;;20.70;57.30;;;;;;5085792;27;43770;-83
2023/05/05 09:17:28;;;;;;;;;;;20.60;57.20;;;;;;5085461;27;42925;-85
2023/05/05 09:20:03;;;;;;;;;;;20.70;57.30;;;;;;5085437;27;42983;-84
2023/05/05 09:22:35;;;;;;;;;;;20.80;57.80;;;;;;5085660;27;42948;-84
2023/05/05 09:25:00;;;;;;;;;;;20.60;58.00;;;;;;5085545;27;43006;-84
2023/05/05 09:27:26;;;;;;;;;;;20.60;58.30;;;;;;5086064;27;42912;-84
2023/05/05 09:29:52;;;;;;;;;;;20.60;58.60;;;;;;5085867;27;43737;-83
2023/05/05 09:32:18;;;;;;;;;;;20.70;58.00;;;;;;5086223;27;43055;-83
2023/05/05 09:34:44;;;;;;;;;;;;;;;;;;5085985;27;43479;-84
2023/05/05 09:37:10;;;;;;;;;;;20.70;58.10;;;;;;5085624;27;43197;-84
2023/05/05 09:39:35;;;;;;;;;;;20.80;58.20;;;;;;5085442;28;43570;-82
2023/05/05 09:42:01;;;;;;;;;;;20.70;58.40;;;;;;5086136;27;42691;-84
2023/05/05 09:44:34;;;;;;;;;;;20.80;58.30;;;;;;5084851;27;42917;-81
2023/05/05 09:46:59;;;;;;;;;;;20.90;58.20;;;;;;5085435;27;42938;-83
2023/05/05 09:49:25;;;;;;;;;;;20.70;58.00;;;;;;5085679;28;43044;-84
2023/05/05 09:51:52;;;;;;;;;;;20.80;57.90;;;;;;5085482;27;42906;-85
2023/05/05 09:54:21;;;;;;;;;;;20.80;57.90;;;;;;5085367;27;42920;-84
2023/05/05 09:56:46;;;;;;;;;;;20.90;57.90;;;;;;5085433;27;43013;-84
2023/05/05 09:59:12;;;;;;;;;;;20.80;58.10;;;;;;5084865;28;43567;-82
2023/05/05 10:01:38;;;;;;;;;;;20.70;58.10;;;;;;5085165;28;42953;-82
2023/05/05 10:04:03;;;;;;;;;;;20.70;58.30;;;;;;5085764;27;43343;-83
2023/05/05 10:06:38;;;;;;;;;;;20.90;58.30;;;;;;5086128;27;42857;-84
2023/05/05 10:09:04;;;;;;;;;;;20.90;58.50;;;;;;5085724;27;43633;-84
2023/05/05 10:11:30;;;;;;;;;;;20.70;58.30;;;;;;5085602;27;42909;-84
2023/05/05 10:13:56;;;;;;;;;;;20.80;58.50;;;;;;5085268;27;43630;-83
2023/05/05 10:16:23;;;;;;;;;;;21.00;58.40;;;;;;5085243;27;42995;-83
2023/05/05 10:18:49;;;;;;;;;;;20.80;58.40;;;;;;5083566;28;43884;-83
2023/05/05 10:21:18;;;;;;;;;;;20.60;58.90;;;;;;5085212;27;43074;-83
2023/05/05 10:23:48;;;;;;;;;;;20.80;59.00;;;;;;5085299;27;44490;-83
2023/05/05 10:26:14;;;;;;;;;;;20.80;59.00;;;;;;5085133;27;42917;-82
2023/05/05 10:28:45;;;;;;;;;;;20.70;58.90;;;;;;5085301;28;43879;-83
2023/05/05 10:31:23;;;;;;;;;;;20.70;58.80;;;;;;5084975;28;42944;-84
2023/05/05 10:33:55;;;;;;;;;;;20.90;59.00;;;;;;5085193;27;42997;-83
2023/05/05 10:36:21;;;;;;;;;;;20.70;58.80;;;;;;5085441;27;42854;-83
2023/05/05 10:38:47;;;;;;;;;;;20.80;58.80;;;;;;5085143;27;42906;-83
2023/05/05 10:41:12;;;;;;;;;;;20.80;58.80;;;;;;5085369;27;42936;-85
2023/05/05 10:43:38;;;;;;;;;;;20.80;58.80;;;;;;5085432;28;43432;-84
2023/05/05 10:46:04;;;;;;;;;;;20.70;58.70;;;;;;5085404;27;43016;-84
2023/05/05 10:49:05;;;;;;;;;;;20.80;58.80;;;;;;5085425;27;43730;-83
2023/05/05 10:51:31;;;;;;;;;;;20.90;58.80;;;;;;5006013;28;42957;-83
2023/05/05 10:54:01;;;;;;;;;;;20.80;58.60;;;;;;5071144;27;43444;-83
2023/05/05 10:56:31;;;;;;;;;;;20.80;58.70;;;;;;5087169;28;42795;-84
2023/05/05 10:58:57;;;;;;;;;;;20.90;58.80;;;;;;5088115;28;43814;-84
2023/05/05 11:01:32;;;;;;;;;;;20.70;58.60;;;;;;5089036;28;42876;-81
2023/05/05 11:04:16;;;;;;;;;;;20.80;58.70;;;;;;5086605;28;43668;-84
2023/05/05 11:06:42;;;;;;;;;;;;;;;;;;5088190;27;42991;-83
2023/05/05 11:09:27;;;;;;;;;;;20.80;58.20;;;;;;5088567;28;43009;-83
2023/05/05 11:12:00;;;;;;;;;;;20.80;58.10;;;;;;5088423;27;43014;-82
2023/05/05 11:14:26;;;;;;;;;;;20.80;58.00;;;;;;5088225;27;43018;-81
2023/05/05 11:16:53;;;;;;;;;;;20.80;57.80;;;;;;5086930;28;42974;-84
2023/05/05 11:19:38;;;;;;;;;;;20.80;57.70;;;;;;5088295;28;42975;-83
2023/05/05 11:22:03;;;;;;;;;;;20.90;57.60;;;;;;5088648;28;42980;-83
2023/05/05 11:24:29;;;;;;;;;;;20.80;57.50;;;;;;5088294;28;42971;-83
2023/05/05 11:26:54;;;;;;;;;;;20.90;57.50;;;;;;5088481;28;42890;-83
2023/05/05 11:29:20;;;;;;;;;;;20.90;57.30;;;;;;5086500;28;44507;-82
2023/05/05 11:32:05;;;;;;;;;;;20.70;57.10;;;;;;5088061;28;42935;-82
2023/05/05 11:34:31;;;;;;;;;;;20.80;57.00;;;;;;5087857;28;42999;-83
2023/05/05 11:37:00;;;;;;;;;;;20.90;57.10;;;;;;5087998;28;42910;-82
2023/05/05 11:39:34;;;;;;;;;;;21.00;57.10;;;;;;5087985;27;42777;-84
2023/05/05 11:42:00;;;;;;;;;;;20.80;56.90;;;;;;5087763;27;43001;-82
2023/05/05 11:44:30;;;;;;;;;;;20.90;56.70;;;;;;5087762;27;42988;-82
2023/05/05 11:46:56;;;;;;;;;;;20.70;56.60;;;;;;5088191;28;43077;-84
2023/05/05 11:49:27;;;;;;;;;;;20.90;56.80;;;;;;5088067;28;43689;-82
2023/05/05 11:51:56;;;;;;;;;;;20.90;56.70;;;;;;5087992;28;42924;-82
2023/05/05 11:54:22;;;;;;;;;;;20.90;56.80;;;;;;5088009;27;43416;-83
2023/05/05 11:56:52;;;;;;;;;;;20.80;56.60;;;;;;5087530;28;42920;-83
2023/05/05 11:59:17;;;;;;;;;;;20.80;56.70;;;;;;5087114;27;44022;-82
2023/05/05 12:01:43;;;;;;;;;;;20.90;56.50;;;;;;5085813;27;42934;-83
2023/05/05 12:04:12;;;;;;;;;;;20.90;56.50;;;;;;5087232;28;43540;-82
2023/05/05 12:06:38;;;;;;;;;;;20.90;56.50;;;;;;5087932;27;42928;-84
2023/05/05 12:09:04;;;;;;;;;;;;;;;;;;5087413;27;42987;-82
2023/05/05 12:11:29;;;;;;;;;;;20.90;56.50;;;;;;5087628;28;42869;-83
2023/05/05 12:14:08;;;;;;;;;;;20.80;56.40;;;;;;5086997;28;42857;-83
2023/05/05 12:16:33;;;;;;;;;;;20.90;56.30;;;;;;5086724;27;42953;-83
2023/05/05 12:19:04;;;;;;;;;;;21.00;56.40;;;;;;5087055;28;42842;-83
2023/05/05 12:21:30;;;;;;;;;;;20.90;56.30;;;;;;5087531;27;42854;-82
2023/05/05 12:23:56;;;;;;;;;;;20.80;56.40;;;;;;5087290;28;43347;-83
2023/05/05 12:26:28;;;;;;;;;;;20.90;56.50;;;;;;5087129;28;42726;-82
2023/05/05 12:28:54;;;;;;;;;;;;;;;;;;5086736;28;43075;-82
2023/05/05 12:31:20;;;;;;;;;;;;;;;;;;5087260;28;42920;-82
2023/05/05 12:33:46;;;;;;;;;;;20.80;56.30;;;;;;5087044;28;42983;-82
2023/05/05 12:36:12;;;;;;;;;;;20.90;56.40;;;;;;5086926;27;43022;-82
2023/05/05 12:38:37;;;;;;;;;;;20.80;56.10;;;;;;5086948;28;42893;-82
2023/05/05 12:41:03;;;;;;;;;;;20.70;56.10;;;;;;5086821;28;42934;-82
2023/05/05 12:43:29;;;;;;;;;;;20.90;56.20;;;;;;5086887;27;42953;-82
2023/05/05 12:45:58;;;;;;;;;;;20.90;56.30;;;;;;5086556;28;42947;-84
2023/05/05 12:48:24;;;;;;;;;;;21.00;56.30;;;;;;5086557;27;42858;-82
2023/05/05 12:50:50;;;;;;;;;;;20.90;56.10;;;;;;5084845;28;43067;-82
2023/05/05 12:53:20;;;;;;;;;;;21.00;56.20;;;;;;5086686;27;42900;-83
2023/05/05 12:55:46;;;;;;;;;;;20.90;56.00;;;;;;5087118;27;42942;-84
2023/05/05 12:58:11;;;;;;;;;;;21.00;56.20;;;;;;5087186;28;42982;-84
2023/05/05 13:00:37;;;;;;;;;;;21.00;56.20;;;;;;5086689;28;42945;-82
2023/05/05 13:03:03;;;;;;;;;;;21.00;56.20;;;;;;5086792;28;43348;-83
2023/05/05 13:05:32;;;;;;;;;;;21.00;56.10;;;;;;5085004;28;42922;-83
2023/05/05 13:07:58;;;;;;;;;;;;;;;;;;5086134;28;42941;-83
2023/05/05 13:10:24;;;;;;;;;;;21.00;56.00;;;;;;5086419;28;42791;-83
2023/05/05 13:12:50;;;;;;;;;;;21.10;56.20;;;;;;5086037;28;42912;-82
2023/05/05 13:15:15;;;;;;;;;;;21.00;56.20;;;;;;5087009;28;42981;-82
2023/05/05 13:17:41;;;;;;;;;;;21.00;56.10;;;;;;5086532;28;42958;-82
2023/05/05 13:20:08;;;;;;;;;;;21.00;55.90;;;;;;5086709;28;42890;-82
2023/05/05 13:22:34;;;;;;;;;;;20.90;55.90;;;;;;5086162;27;43059;-82
2023/05/05 13:24:59;;;;;;;;;;;21.00;55.90;;;;;;5086045;28;42849;-85
2023/05/05 13:27:25;;;;;;;;;;;21.00;55.80;;;;;;5086142;28;42895;-83
2023/05/05 13:29:51;;;;;;;;;;;;;;;;;;5084802;28;43016;-83
2023/05/05 13:32:16;;;;;;;;;;;21.00;55.90;;;;;;5086381;28;43982;-82
2023/05/05 13:34:42;;;;;;;;;;;21.00;55.90;;;;;;5086167;28;43108;-83
2023/05/05 13:37:08;;;;;;;;;;;20.90;55.80;;;;;;5086029;27;42882;-83
2023/05/05 13:39:34;;;;;;;;;;;20.90;55.70;;;;;;5086579;27;43038;-82
2023/05/05 13:41:59;;;;;;;;;;;21.00;55.80;;;;;;5083898;28;42949;-82
2023/05/05 13:44:25;;;;;;;;;;;21.10;55.90;;;;;;5085727;28;42886;-82
2023/05/05 13:46:50;;;;;;;;;;;21.00;55.80;;;;;;5085225;28;43971;-83
2023/05/05 13:49:16;;;;;;;;;;;21.00;55.80;;;;;;5085240;28;42961;-84
2023/05/05 13:51:41;;;;;;;;;;;21.00;55.80;;;;;;5085663;28;42900;-82
2023/05/05 13:54:07;;;;;;;;;;;21.10;55.90;;;;;;5085987;28;42788;-84
2023/05/05 13:56:33;;;;;;;;;;;21.20;55.60;;;;;;5085719;28;42834;-82
2023/05/05 13:58:58;;;;;;;;;;;21.00;55.80;;;;;;5085635;27;42905;-82
2023/05/05 14:01:24;;;;;;;;;;;21.00;56.00;;;;;;5085834;28;42837;-82
2023/05/05 14:03:50;;;;;;;;;;;21.00;55.90;;;;;;5085284;27;43001;-84
2023/05/05 14:06:15;;;;;;;;;;;21.00;55.70;;;;;;5083959;28;44351;-84
2023/05/05 14:08:41;;;;;;;;;;;21.20;55.70;;;;;;5085435;27;42993;-83
2023/05/05 14:11:07;;;;;;;;;;;21.20;55.70;;;;;;5085127;28;43096;-82
2023/05/05 14:13:32;;;;;;;;;;;21.00;55.50;;;;;;5085451;28;43054;-82
2023/05/05 14:15:58;;;;;;;;;;;21.10;55.50;;;;;;5085269;28;43035;-84
2023/05/05 14:18:24;;;;;;;;;;;21.00;55.50;;;;;;5085848;28;42991;-83
2023/05/05 14:20:49;;;;;;;;;;;21.10;55.60;;;;;;5085570;27;43706;-82
2023/05/05 14:23:15;;;;;;;;;;;21.10;55.50;;;;;;5085136;28;43015;-83
2023/05/05 14:25:40;;;;;;;;;;;21.00;55.40;;;;;;5084902;28;43537;-82
2023/05/05 14:28:06;;;;;;;;;;;21.00;55.40;;;;;;5085626;27;43004;-82